createdAt,value
2018-03-06T00:01:48.586Z,48.55
2018-03-06T00:04:15.127Z,42.00
2018-03-06T00:06:42.320Z,48.95
2018-03-06T00:09:09.508Z,46.85
2018-03-06T00:11:36.156Z,43.87
2018-03-06T00:14:02.657Z,48.63
2018-03-06T00:16:29.089Z,46.60
2018-03-06T00:18:55.603Z,50.00
2018-03-06T00:21:22.793Z,50.90
2018-03-06T00:23:49.262Z,49.17
2018-03-06T00:26:15.761Z,50.30
2018-03-06T00:28:42.169Z,52.35
2018-03-06T00:31:08.708Z,47.08
2018-03-06T00:33:35.123Z,50.20
2018-03-06T00:36:02.343Z,49.17
2018-03-06T00:38:28.778Z,48.10
2018-03-06T00:40:55.224Z,48.45
2018-03-06T00:43:22.408Z,48.83
2018-03-06T00:45:49.196Z,48.13
2018-03-06T00:48:15.626Z,49.40
2018-03-06T00:50:42.112Z,48.78
2018-03-06T00:53:08.508Z,49.40
2018-03-06T00:55:35.006Z,48.15
2018-03-06T00:58:01.470Z,48.10
2018-03-06T01:00:27.893Z,45.72
2018-03-06T01:02:54.346Z,46.58
2018-03-06T01:05:21.489Z,46.90
2018-03-06T01:07:47.937Z,48.30
2018-03-06T01:10:15.097Z,52.75
2018-03-06T01:12:41.661Z,48.00
2018-03-06T01:15:08.086Z,48.63
2018-03-06T01:17:34.522Z,49.95
2018-03-06T01:20:00.994Z,50.53
2018-03-06T01:22:27.425Z,50.10
2018-03-06T01:24:53.913Z,52.25
2018-03-06T01:27:20.309Z,51.10
2018-03-06T01:29:47.547Z,47.03
2018-03-06T01:32:13.934Z,49.00
2018-03-06T01:34:40.389Z,50.45
2018-03-06T01:37:06.843Z,51.00
2018-03-06T01:39:33.365Z,49.25
2018-03-06T01:41:59.778Z,49.45
2018-03-06T01:44:26.309Z,50.53
2018-03-06T01:46:52.740Z,45.42
2018-03-06T01:49:19.173Z,49.67
2018-03-06T01:51:57.534Z,51.35
2018-03-06T01:54:24.746Z,49.85
2018-03-06T01:56:51.203Z,49.45
2018-03-06T01:59:17.617Z,47.83
2018-03-06T02:01:44.048Z,48.65
2018-03-06T02:04:10.526Z,51.88
2018-03-06T02:06:37.777Z,49.30
2018-03-06T02:09:04.207Z,47.85
2018-03-06T02:11:31.436Z,49.47
2018-03-06T02:13:57.919Z,52.22
2018-03-06T02:16:24.308Z,44.47
2018-03-06T02:18:50.764Z,49.15
2018-03-06T02:21:17.145Z,47.58
2018-03-06T02:23:43.564Z,47.47
2018-03-06T02:26:09.962Z,48.50
2018-03-06T02:28:36.414Z,48.72
2018-03-06T02:31:02.821Z,47.78
2018-03-06T02:33:30.002Z,51.65
2018-03-06T02:35:56.465Z,50.70
2018-03-06T02:38:22.878Z,50.38
2018-03-06T02:40:49.292Z,50.12
2018-03-06T02:43:15.710Z,49.70
2018-03-06T02:45:42.123Z,52.80
2018-03-06T02:48:09.307Z,51.37
2018-03-06T02:50:35.735Z,50.30
2018-03-06T02:53:02.142Z,50.50
2018-03-06T02:55:30.173Z,50.15
2018-03-06T02:57:56.630Z,50.63
2018-03-06T03:00:23.071Z,52.58
2018-03-06T03:02:50.361Z,49.28
2018-03-06T03:05:16.798Z,50.47
2018-03-06T03:07:43.288Z,53.55
2018-03-06T03:10:10.445Z,48.87
2018-03-06T03:12:37.595Z,51.03
2018-03-06T03:15:04.814Z,49.17
2018-03-06T03:17:32.010Z,50.35
2018-03-06T03:19:58.484Z,50.90
2018-03-06T03:22:24.941Z,49.03
2018-03-06T03:24:51.613Z,48.63
2018-03-06T03:27:17.998Z,50.30
2018-03-06T03:29:44.501Z,48.85
2018-03-06T03:32:10.894Z,50.33
2018-03-06T03:34:38.072Z,48.80
2018-03-06T03:37:05.275Z,46.37
2018-03-06T03:39:31.701Z,48.83
2018-03-06T03:41:58.217Z,47.55
2018-03-06T03:44:24.628Z,45.10
2018-03-06T03:46:51.104Z,49.08
2018-03-06T03:49:17.577Z,47.88
2018-03-06T03:51:43.985Z,48.35
2018-03-06T03:54:11.289Z,50.95
2018-03-06T03:56:37.722Z,49.72
2018-03-06T03:59:04.165Z,49.60
2018-03-06T04:01:30.597Z,44.90
2018-03-06T04:03:57.062Z,47.60
2018-03-06T04:06:24.370Z,48.85
2018-03-06T04:08:50.805Z,47.50
2018-03-06T04:11:17.955Z,50.45
2018-03-06T04:13:44.485Z,47.38
2018-03-06T04:16:10.901Z,47.17
2018-03-06T04:18:37.394Z,47.50
2018-03-06T04:21:03.783Z,47.08
2018-03-06T04:23:30.461Z,46.92
2018-03-06T04:25:56.883Z,48.85
2018-03-06T04:28:23.447Z,47.25
2018-03-06T04:30:49.892Z,49.45
2018-03-06T04:33:16.301Z,46.47
2018-03-06T04:35:43.502Z,46.72
2018-03-06T04:38:09.902Z,44.58
2018-03-06T04:40:36.379Z,45.83
2018-03-06T04:43:02.805Z,48.60
2018-03-06T04:45:29.222Z,46.75
2018-03-06T04:47:55.643Z,49.97
2018-03-06T04:50:22.057Z,48.90
2018-03-06T04:52:49.221Z,49.80
2018-03-06T04:55:15.622Z,48.90
2018-03-06T04:57:42.916Z,49.55
2018-03-06T05:00:09.307Z,48.00
2018-03-06T05:02:36.506Z,48.42
2018-03-06T05:05:02.928Z,41.08
2018-03-06T05:07:29.364Z,48.50
2018-03-06T05:09:55.809Z,47.83
2018-03-06T05:12:22.204Z,49.45
2018-03-06T05:14:48.648Z,46.95
2018-03-06T05:17:15.106Z,52.33
2018-03-06T05:19:41.542Z,52.62
2018-03-06T05:22:07.969Z,52.10
2018-03-06T05:24:34.385Z,49.67
2018-03-06T05:27:00.878Z,50.97
2018-03-06T05:29:28.100Z,50.97
2018-03-06T05:31:54.547Z,49.85
2018-03-06T05:34:20.991Z,50.12
2018-03-06T05:36:48.088Z,52.00
2018-03-06T05:39:14.472Z,51.90
2018-03-06T05:41:41.687Z,51.90
2018-03-06T05:44:08.117Z,53.33
2018-03-06T05:46:34.538Z,51.03
2018-03-06T05:49:01.262Z,53.38
2018-03-06T05:51:28.088Z,55.60
2018-03-06T05:53:54.619Z,54.88
2018-03-06T05:56:21.027Z,57.15
2018-03-06T05:58:47.708Z,61.70
2018-03-06T06:01:14.116Z,57.70
2018-03-06T06:03:41.362Z,55.30
2018-03-06T06:06:08.493Z,54.22
2018-03-06T06:08:34.981Z,53.53
2018-03-06T06:11:01.373Z,49.13
2018-03-06T06:13:28.590Z,51.63
2018-03-06T06:15:55.061Z,50.53
2018-03-06T06:18:22.201Z,51.90
2018-03-06T06:20:48.759Z,49.00
2018-03-06T06:23:15.934Z,50.88
2018-03-06T06:25:42.366Z,51.25
2018-03-06T06:28:08.817Z,49.63
2018-03-06T06:30:36.102Z,54.22
2018-03-06T06:33:03.239Z,49.97
2018-03-06T06:35:29.645Z,53.05
2018-03-06T06:37:56.069Z,49.63
2018-03-06T06:40:22.549Z,50.28
2018-03-06T06:42:48.974Z,53.00
2018-03-06T06:45:15.422Z,51.45
2018-03-06T06:47:42.689Z,50.65
2018-03-06T06:50:09.885Z,52.67
2018-03-06T06:52:36.370Z,48.13
2018-03-06T06:55:03.534Z,50.72
2018-03-06T06:57:30.003Z,45.47
2018-03-06T06:59:56.403Z,51.78
2018-03-06T07:02:22.822Z,49.53
2018-03-06T07:04:50.053Z,46.70
2018-03-06T07:07:17.238Z,46.92
2018-03-06T07:09:43.770Z,47.08
2018-03-06T07:12:10.182Z,47.33
2018-03-06T07:14:37.368Z,48.13
2018-03-06T07:17:03.793Z,50.85
2018-03-06T07:19:30.272Z,45.15
2018-03-06T07:21:56.674Z,46.00
2018-03-06T07:24:23.832Z,45.53
2018-03-06T07:26:50.272Z,47.15
2018-03-06T07:29:16.701Z,47.80
2018-03-06T07:31:43.157Z,51.42
2018-03-06T07:34:09.561Z,44.08
2018-03-06T07:36:35.993Z,39.15
2018-03-06T07:39:02.373Z,38.08
2018-03-06T07:41:29.530Z,32.88
2018-03-06T07:43:55.978Z,29.08
2018-03-06T07:46:22.460Z,38.13
2018-03-06T07:48:48.960Z,36.92
2018-03-06T07:51:16.173Z,39.80
2018-03-06T07:53:43.305Z,42.85
2018-03-06T07:56:09.737Z,43.47
2018-03-06T07:58:36.145Z,36.05
2018-03-06T08:01:02.580Z,22.52
2018-03-06T08:03:28.969Z,29.60
2018-03-06T08:05:55.430Z,35.38
2018-03-06T08:08:22.598Z,33.55
2018-03-06T08:10:49.079Z,43.00
2018-03-06T08:13:15.502Z,37.85
2018-03-06T08:15:41.950Z,26.20
2018-03-06T08:18:08.436Z,39.25
2018-03-06T08:20:34.906Z,41.63
2018-03-06T08:23:01.347Z,38.90
2018-03-06T08:25:27.838Z,34.70
2018-03-06T08:27:54.496Z,38.25
2018-03-06T08:30:21.857Z,37.75
2018-03-06T08:32:49.141Z,40.80
2018-03-06T08:35:15.538Z,39.40
2018-03-06T08:37:41.982Z,33.95
2018-03-06T08:40:08.390Z,36.30
2018-03-06T08:42:35.580Z,37.30
2018-03-06T08:45:02.152Z,39.28
2018-03-06T08:47:28.573Z,37.08
2018-03-06T08:49:55.107Z,36.28
2018-03-06T08:52:21.594Z,37.88
2018-03-06T08:54:48.104Z,38.83
2018-03-06T08:57:15.412Z,36.42
2018-03-06T08:59:41.838Z,37.92
2018-03-06T09:02:08.283Z,38.45
2018-03-06T09:04:34.669Z,38.30
2018-03-06T09:07:01.151Z,36.25
2018-03-06T09:09:27.548Z,39.43
2018-03-06T09:11:54.002Z,40.37
2018-03-06T09:14:20.461Z,38.50
2018-03-06T09:16:46.909Z,37.53
2018-03-06T09:19:13.349Z,41.57
2018-03-06T09:21:40.537Z,36.63
2018-03-06T09:24:06.962Z,40.60
2018-03-06T09:26:33.890Z,39.87
2018-03-06T09:29:00.465Z,39.80
2018-03-06T09:31:26.957Z,41.33
2018-03-06T09:33:53.468Z,42.00
2018-03-06T09:36:19.934Z,42.37
2018-03-06T09:38:46.386Z,40.00
2018-03-06T09:41:12.869Z,40.73
2018-03-06T09:43:39.361Z,36.60
2018-03-06T09:46:05.879Z,40.23
2018-03-06T09:48:32.289Z,40.30
2018-03-06T09:50:59.588Z,41.67
2018-03-06T09:53:25.981Z,40.57
2018-03-06T09:55:52.476Z,40.43
2018-03-06T09:58:19.629Z,39.23
2018-03-06T10:00:46.052Z,38.43
2018-03-06T10:03:12.473Z,41.40
2018-03-06T10:05:38.860Z,41.13
2018-03-06T10:08:06.150Z,40.87
2018-03-06T10:10:32.554Z,39.97
2018-03-06T10:12:59.743Z,39.40
2018-03-06T10:15:26.146Z,40.65
2018-03-06T10:17:52.605Z,40.80
2018-03-06T10:20:19.032Z,40.90
2018-03-06T10:22:45.435Z,42.87
2018-03-06T10:25:12.031Z,44.08
2018-03-06T10:27:38.462Z,40.30
2018-03-06T10:30:04.926Z,41.75
2018-03-06T10:32:31.354Z,37.53
2018-03-06T10:34:57.880Z,38.25
2018-03-06T10:37:24.362Z,40.08
2018-03-06T10:39:50.829Z,34.78
2018-03-06T10:42:18.194Z,28.80
2018-03-06T10:44:45.353Z,36.03
2018-03-06T10:47:11.816Z,32.05
2018-03-06T10:49:38.249Z,39.35
2018-03-06T10:52:04.684Z,37.70
2018-03-06T10:54:31.123Z,42.20
2018-03-06T10:56:57.561Z,41.30
2018-03-06T10:59:23.977Z,42.65
2018-03-06T11:01:56.463Z,41.22
2018-03-06T11:04:23.729Z,43.90
2018-03-06T11:06:50.091Z,42.65
2018-03-06T11:09:17.267Z,38.75
2018-03-06T11:11:44.059Z,44.80
2018-03-06T11:14:10.523Z,44.85
2018-03-06T11:16:36.961Z,42.70
2018-03-06T11:19:03.450Z,44.25
2018-03-06T11:21:29.910Z,43.40
2018-03-06T11:23:57.145Z,42.33
2018-03-06T11:26:23.595Z,38.80
2018-03-06T11:28:50.769Z,42.10
2018-03-06T11:31:17.228Z,38.93
2018-03-06T11:33:44.596Z,44.67
2018-03-06T11:36:11.941Z,44.88
2018-03-06T11:38:38.378Z,44.97
2018-03-06T11:41:04.903Z,44.57
2018-03-06T11:43:31.319Z,41.33
2018-03-06T11:45:57.828Z,45.28
2018-03-06T11:48:25.085Z,43.37
2018-03-06T11:50:51.548Z,44.83
2018-03-06T11:53:17.996Z,43.53
2018-03-06T11:55:44.401Z,40.67
2018-03-06T11:58:10.898Z,34.40
2018-03-06T12:00:38.065Z,44.15
2018-03-06T12:03:04.519Z,38.83
2018-03-06T12:05:30.914Z,44.95
2018-03-06T12:07:58.077Z,44.10
2018-03-06T12:10:24.617Z,44.78
2018-03-06T12:12:51.089Z,43.90
2018-03-06T12:15:17.536Z,42.77
2018-03-06T12:17:44.698Z,37.10
2018-03-06T12:20:11.162Z,39.45
2018-03-06T12:22:37.691Z,40.38
2018-03-06T12:25:04.110Z,41.17
2018-03-06T12:27:30.572Z,45.47
2018-03-06T12:29:56.994Z,45.28
2018-03-06T12:32:23.390Z,43.93
2018-03-06T12:34:49.818Z,48.30
2018-03-06T12:37:16.281Z,46.87
2018-03-06T12:39:43.544Z,40.00
2018-03-06T12:42:10.028Z,44.83
2018-03-06T12:44:36.437Z,43.43
2018-03-06T12:47:02.898Z,46.30
2018-03-06T12:49:29.421Z,42.13
2018-03-06T12:51:55.843Z,39.00
2018-03-06T12:54:22.334Z,33.70
2018-03-06T12:56:50.505Z,42.00
2018-03-06T12:59:17.754Z,44.40
2018-03-06T13:01:44.981Z,44.37
2018-03-06T13:04:11.437Z,37.20
2018-03-06T13:06:37.860Z,44.30
2018-03-06T13:09:04.335Z,45.10
2018-03-06T13:11:30.976Z,34.77
2018-03-06T13:13:57.514Z,37.93
2018-03-06T13:16:23.957Z,49.80
2018-03-06T13:18:50.455Z,34.90
2018-03-06T13:21:16.867Z,44.78
2018-03-06T13:23:44.076Z,39.42
2018-03-06T13:26:11.246Z,43.63
2018-03-06T13:28:37.705Z,43.83
2018-03-06T13:31:04.898Z,44.87
2018-03-06T13:33:31.465Z,44.47
2018-03-06T13:35:57.929Z,40.27
2018-03-06T13:38:25.090Z,45.70
2018-03-06T13:40:51.561Z,43.50
2018-03-06T13:43:18.061Z,47.03
2018-03-06T13:45:44.670Z,45.10
2018-03-06T13:48:11.869Z,45.47
2018-03-06T13:50:38.319Z,43.13
2018-03-06T13:53:04.727Z,46.40
2018-03-06T13:55:31.161Z,42.27
2018-03-06T13:57:57.667Z,42.77
2018-03-06T14:00:24.832Z,41.17
2018-03-06T14:02:51.273Z,43.90
2018-03-06T14:05:17.769Z,39.83
2018-03-06T14:07:45.076Z,44.40
2018-03-06T14:10:11.586Z,42.40
2018-03-06T14:12:38.709Z,44.10
2018-03-06T14:15:05.259Z,43.00
2018-03-06T14:17:31.736Z,41.30
2018-03-06T14:19:58.185Z,42.90
2018-03-06T14:22:24.694Z,42.13
2018-03-06T14:24:51.152Z,39.73
2018-03-06T14:27:17.721Z,40.13
2018-03-06T14:29:44.223Z,39.23
2018-03-06T14:32:10.814Z,41.77
2018-03-06T14:34:37.342Z,42.90
2018-03-06T14:37:03.909Z,43.27
2018-03-06T14:39:30.350Z,41.20
2018-03-06T14:41:56.901Z,45.03
2018-03-06T14:44:25.309Z,41.47
2018-03-06T14:46:51.766Z,39.17
2018-03-06T14:49:18.198Z,39.63
2018-03-06T14:51:44.806Z,42.85
2018-03-06T14:54:11.283Z,42.55
2018-03-06T14:56:37.712Z,47.90
2018-03-06T14:59:04.139Z,39.45
2018-03-06T15:01:30.605Z,45.10
2018-03-06T15:03:57.899Z,40.83
2018-03-06T15:06:24.344Z,39.60
2018-03-06T15:08:50.890Z,39.17
2018-03-06T15:11:17.309Z,47.45
2018-03-06T15:13:43.750Z,42.70
2018-03-06T15:16:10.266Z,41.27
2018-03-06T15:27:33.672Z,43.47
2018-03-06T15:30:00.225Z,43.80
2018-03-06T15:32:26.729Z,39.17
2018-03-06T15:34:53.926Z,37.20
2018-03-06T15:37:20.374Z,38.83
2018-03-06T15:39:46.815Z,41.00
2018-03-06T15:42:13.322Z,49.70
2018-03-06T15:44:39.812Z,43.07
2018-03-06T15:47:06.390Z,40.60
2018-03-06T15:49:33.555Z,41.47
2018-03-06T15:52:00.843Z,39.60
2018-03-06T15:54:28.053Z,39.70
2018-03-06T15:56:54.523Z,36.97
2018-03-06T15:59:21.705Z,39.47
2018-03-06T16:01:48.161Z,37.90
2018-03-06T16:04:14.834Z,37.00
2018-03-06T16:06:41.298Z,42.28
2018-03-06T16:09:07.826Z,42.20
2018-03-06T16:11:34.281Z,40.90
2018-03-06T16:14:02.249Z,43.60
2018-03-06T16:16:28.755Z,39.55
2018-03-06T16:18:55.436Z,41.30
2018-03-06T16:21:24.840Z,37.72
2018-03-06T16:23:51.424Z,38.30
2018-03-06T16:26:18.647Z,38.63
2018-03-06T16:28:45.132Z,36.03
2018-03-06T16:31:11.643Z,34.00
2018-03-06T16:33:38.842Z,35.60
2018-03-06T16:36:05.458Z,36.95
2018-03-06T16:38:31.871Z,34.78
2018-03-06T16:40:59.112Z,35.42
2018-03-06T16:43:26.336Z,31.48
2018-03-06T16:45:52.892Z,32.88
2018-03-06T16:48:20.083Z,31.58
2018-03-06T16:50:46.637Z,36.50
2018-03-06T16:53:13.083Z,35.33
2018-03-06T16:55:39.582Z,34.55
2018-03-06T16:58:06.098Z,35.88
2018-03-06T17:00:32.553Z,38.35
2018-03-06T17:02:59.158Z,38.30
2018-03-06T17:05:26.322Z,36.05
2018-03-06T17:07:52.872Z,39.38
2018-03-06T17:10:19.304Z,37.03
2018-03-06T17:12:45.742Z,34.70
2018-03-06T17:15:12.381Z,38.20
2018-03-06T17:17:38.792Z,37.60
2018-03-06T17:20:05.261Z,36.80
2018-03-06T17:22:31.643Z,37.33
2018-03-06T17:24:58.915Z,37.85
2018-03-06T17:27:25.349Z,35.63
2018-03-06T17:29:51.978Z,37.97
2018-03-06T17:32:19.251Z,39.95
2018-03-06T17:34:45.833Z,41.70
2018-03-06T17:37:13.170Z,50.03
2018-03-06T17:39:39.795Z,56.80
2018-03-06T17:42:06.275Z,72.03
2018-03-06T17:44:33.639Z,44.92
2018-03-06T17:47:00.174Z,41.53
2018-03-06T17:49:26.727Z,43.45
2018-03-06T17:51:53.220Z,48.05
2018-03-06T17:54:19.865Z,44.22
2018-03-06T17:56:47.114Z,43.33
2018-03-06T17:59:14.334Z,42.03
2018-03-06T18:01:41.583Z,39.10
2018-03-06T18:04:08.267Z,36.50
2018-03-06T18:09:31.106Z,35.28
2018-03-06T18:11:57.632Z,37.15
2018-03-06T18:14:24.158Z,36.65
2018-03-06T18:16:50.731Z,34.40
2018-03-06T18:19:18.165Z,35.58
2018-03-06T18:31:29.664Z,35.38
2018-03-06T18:33:56.167Z,36.55
2018-03-06T18:36:23.520Z,35.13
2018-03-06T18:38:50.677Z,35.38
2018-03-06T18:41:17.973Z,36.58
2018-03-06T18:43:45.328Z,35.00
2018-03-06T18:46:11.887Z,35.38
2018-03-06T18:48:38.392Z,32.55
2018-03-06T18:51:10.900Z,34.65
2018-03-06T18:53:37.469Z,35.30
2018-03-06T18:56:04.745Z,33.53
2018-03-06T18:58:31.270Z,33.65
2018-03-06T19:04:23.274Z,33.35
2018-03-06T19:06:52.482Z,34.03
2018-03-06T19:09:18.990Z,33.85
2018-03-06T19:11:46.334Z,38.30
2018-03-06T19:14:12.900Z,36.47
2018-03-06T19:16:39.496Z,34.63
2018-03-06T19:19:06.097Z,36.55
2018-03-06T19:21:32.734Z,35.08
2018-03-06T19:24:00.066Z,38.53
2018-03-06T19:26:26.662Z,36.70
2018-03-06T19:28:53.411Z,39.22
2018-03-06T19:31:20.071Z,35.22
2018-03-06T19:33:46.588Z,33.88
2018-03-06T19:36:13.138Z,37.80
2018-03-06T19:38:39.737Z,36.58
2018-03-06T19:41:06.379Z,37.88
2018-03-06T19:43:32.995Z,37.63
2018-03-06T19:45:59.549Z,35.08
2018-03-06T19:48:26.204Z,37.13
2018-03-06T19:50:52.766Z,37.13
2018-03-06T19:53:19.621Z,35.95
2018-03-06T19:55:46.206Z,38.58
2018-03-06T19:58:12.773Z,38.38
2018-03-06T20:00:39.343Z,37.70
2018-03-06T20:03:06.618Z,36.58
2018-03-06T20:05:33.134Z,35.30
2018-03-06T20:07:59.678Z,37.97
2018-03-06T20:10:26.209Z,36.90
2018-03-06T20:12:52.850Z,37.75
2018-03-06T20:15:20.217Z,36.78
2018-03-06T20:17:46.705Z,39.63
2018-03-06T20:20:13.313Z,37.85
2018-03-06T20:22:39.817Z,36.67
2018-03-06T20:25:12.501Z,33.72
2018-03-06T20:27:39.089Z,35.92
2018-03-06T20:30:05.631Z,34.72
2018-03-06T20:32:38.278Z,35.53
2018-03-06T20:35:04.835Z,35.03
2018-03-06T20:37:31.455Z,35.38
2018-03-06T20:40:04.066Z,38.25
2018-03-06T20:42:30.782Z,36.63
2018-03-06T20:44:57.425Z,36.67
2018-03-06T20:47:24.052Z,39.67
2018-03-06T20:49:50.604Z,37.63
2018-03-06T20:52:18.012Z,39.55
2018-03-06T20:54:50.635Z,37.80
2018-03-06T20:57:17.986Z,37.47
2018-03-06T20:59:44.590Z,36.67
2018-03-06T21:02:11.141Z,35.13
2018-03-06T21:04:38.351Z,41.80
2018-03-06T21:07:05.584Z,37.55
2018-03-06T21:09:32.533Z,36.90
2018-03-06T21:11:59.070Z,37.38
2018-03-06T21:14:26.540Z,39.00
2018-03-06T21:16:53.950Z,35.90
2018-03-06T21:19:20.670Z,39.63
2018-03-06T21:21:48.048Z,38.85
2018-03-06T21:24:14.900Z,40.20
2018-03-06T21:26:42.077Z,38.50
2018-03-06T21:29:08.690Z,41.67
2018-03-06T21:31:35.278Z,39.15
2018-03-06T21:34:01.972Z,39.42
2018-03-06T21:36:28.711Z,39.92
2018-03-06T21:38:55.224Z,39.15
2018-03-06T21:41:21.851Z,39.78
2018-03-06T21:43:48.428Z,35.55
2018-03-06T21:46:14.998Z,32.28
2018-03-06T21:48:41.636Z,32.60
2018-03-06T21:51:15.183Z,33.45
2018-03-06T21:53:43.298Z,36.47
2018-03-06T21:56:09.768Z,35.72
2018-03-06T21:58:36.253Z,33.75
2018-03-06T22:01:03.483Z,32.53
2018-03-06T22:03:30.091Z,37.85
2018-03-06T22:05:57.372Z,34.25
2018-03-06T22:08:23.951Z,38.47
2018-03-06T22:10:50.426Z,38.53
2018-03-06T22:13:16.971Z,39.72
2018-03-06T22:15:43.665Z,38.90
2018-03-06T22:18:10.219Z,42.80
2018-03-06T22:20:36.695Z,40.47
2018-03-06T22:23:03.914Z,39.45
2018-03-06T22:25:30.491Z,38.35
2018-03-06T22:27:57.702Z,40.28
2018-03-06T22:30:28.509Z,40.35
2018-03-06T22:32:55.020Z,37.75
2018-03-06T22:35:28.003Z,36.15
2018-03-06T22:37:55.279Z,37.72
2018-03-06T22:40:21.856Z,37.17
2018-03-06T22:42:48.363Z,42.05
2018-03-06T22:45:14.831Z,42.28
2018-03-06T22:47:41.459Z,41.20
2018-03-06T22:50:08.758Z,42.50
2018-03-06T22:52:36.168Z,41.75
2018-03-06T22:55:02.687Z,43.05
2018-03-06T22:57:29.177Z,43.30
2018-03-06T22:59:55.731Z,41.15
2018-03-06T23:02:22.255Z,43.75
2018-03-06T23:04:49.471Z,40.95
2018-03-06T23:07:17.561Z,40.67
2018-03-06T23:09:44.794Z,41.95
2018-03-06T23:12:11.400Z,44.58
2018-03-06T23:14:39.047Z,40.80
2018-03-06T23:17:05.591Z,40.15
2018-03-06T23:22:31.201Z,40.28
2018-03-06T23:24:57.710Z,40.80
2018-03-06T23:27:26.483Z,42.28
2018-03-06T23:29:53.224Z,39.25
2018-03-06T23:32:19.668Z,42.17
2018-03-06T23:34:46.122Z,40.40
2018-03-06T23:37:12.753Z,37.25
2018-03-06T23:39:39.949Z,42.75
2018-03-06T23:42:06.543Z,40.78
2018-03-06T23:44:33.736Z,39.88
2018-03-06T23:47:00.272Z,40.70
2018-03-06T23:49:26.722Z,40.25
2018-03-06T23:51:53.242Z,43.28
2018-03-06T23:54:19.707Z,41.10
2018-03-06T23:56:46.267Z,39.55
2018-03-06T23:59:13.487Z,42.35
